Time,TemperatureF,DewpointF,PressureIn,WindDirection,WindDirectionDegrees,WindSpeedMPH,WindSpeedGustMPH,Humidity,HourlyPrecipIn,Conditions,Clouds,dailyrainin,SolarRadiationWatts/m^2,SoftwareType,DateUTC
2013-06-24 00:02:00,70.9,69.1,30.14,ESE,105,0.0,0.0,91,0.00,,,0.00,0.0,meteohub,2013-06-24 04:02:00,
2013-06-24 00:03:00,70.9,69.1,30.14,ESE,105,0.0,0.0,91,0.00,,,0.00,0.0,meteohub,2013-06-24 04:03:00,
2013-06-24 00:06:00,70.9,69.1,30.14,ESE,105,0.0,0.0,91,0.00,,,0.00,0.0,meteohub,2013-06-24 04:06:00,
2013-06-24 00:07:00,70.9,69.1,30.14,ESE,105,0.0,0.0,91,0.00,,,0.00,0.0,meteohub,2013-06-24 04:07:00,
2013-06-24 00:09:00,70.7,68.9,30.14,ESE,105,0.0,0.0,91,0.00,,,0.00,0.0,meteohub,2013-06-24 04:09:00,
2013-06-24 00:15:00,70.7,68.9,30.14,ESE,105,0.0,0.0,91,0.00,,,0.00,0.0,meteohub,2013-06-24 04:15:00,
2013-06-24 00:21:00,70.5,68.7,30.14,ESE,105,0.0,0.0,91,0.00,,,0.00,0.0,meteohub,2013-06-24 04:21:00,
2013-06-24 00:27:00,70.5,68.7,30.14,ESE,105,0.0,0.0,91,0.00,,,0.00,0.0,meteohub,2013-06-24 04:27:00,
2013-06-24 00:32:00,70.3,68.5,30.14,ESE,105,0.0,1.0,91,0.00,,,0.00,0.0,meteohub,2013-06-24 04:32:00,
2013-06-24 00:37:00,70.3,68.5,30.14,ESE,105,0.0,1.0,91,0.00,,,0.00,0.0,meteohub,2013-06-24 04:37:00,
2013-06-24 00:42:00,70.2,68.4,30.14,ESE,105,0.0,1.0,91,0.00,,,0.00,0.0,meteohub,2013-06-24 04:42:00,
2013-06-24 00:47:00,70.2,68.7,30.14,ESE,105,0.0,0.0,92,0.00,,,0.00,0.0,meteohub,2013-06-24 04:47:00,
2013-06-24 00:52:00,70.0,68.5,30.14,ESE,105,0.0,0.0,92,0.00,,,0.00,0.0,meteohub,2013-06-24 04:52:00,
2013-06-24 00:57:00,70.0,68.5,30.14,ESE,105,0.0,0.0,92,0.00,,,0.00,0.0,meteohub,2013-06-24 04:57:00,
2013-06-24 01:02:00,69.8,68.4,30.13,ESE,105,0.0,0.0,92,0.00,,,0.00,0.0,meteohub,2013-06-24 05:02:00,
2013-06-24 01:07:00,69.8,68.4,30.14,ESE,105,0.0,0.0,92,0.00,,,0.00,0.0,meteohub,2013-06-24 05:07:00,
2013-06-24 01:12:00,69.6,67.8,30.14,ESE,105,0.0,0.0,91,0.00,,,0.00,0.0,meteohub,2013-06-24 05:12:00,
2013-06-24 01:17:00,69.6,68.2,30.13,ESE,105,0.0,0.0,92,0.00,,,0.00,0.0,meteohub,2013-06-24 05:17:00,
2013-06-24 01:22:00,69.6,68.2,30.14,ESE,105,0.0,0.0,92,0.00,,,0.00,0.0,meteohub,2013-06-24 05:22:00,
2013-06-24 01:27:00,69.4,68.0,30.13,ESE,105,0.0,0.0,92,0.00,,,0.00,0.0,meteohub,2013-06-24 05:27:00,
2013-06-24 01:32:00,69.3,67.8,30.13,ESE,105,0.0,1.0,92,0.00,,,0.00,0.0,meteohub,2013-06-24 05:32:00,
2013-06-24 01:37:00,69.3,67.8,30.12,ESE,105,0.0,1.0,92,0.00,,,0.00,0.0,meteohub,2013-06-24 05:37:00,
2013-06-24 01:42:00,69.1,67.6,30.12,ESE,105,0.0,1.0,92,0.00,,,0.00,0.0,meteohub,2013-06-24 05:42:00,
2013-06-24 01:47:00,69.1,67.6,30.13,ESE,105,0.0,0.0,92,0.00,,,0.00,0.0,meteohub,2013-06-24 05:47:00,
2013-06-24 01:52:00,69.1,67.6,30.12,ESE,105,0.0,0.0,92,0.00,,,0.00,0.0,meteohub,2013-06-24 05:52:00,
2013-06-24 01:57:00,68.9,67.5,30.12,ESE,105,0.0,0.0,92,0.00,,,0.00,0.0,meteohub,2013-06-24 05:57:00,
2013-06-24 02:02:00,68.9,67.5,30.12,ESE,105,0.0,0.0,92,0.00,,,0.00,0.0,meteohub,2013-06-24 06:02:00,
2013-06-24 02:07:00,68.9,67.5,30.12,ESE,105,0.0,0.0,92,0.00,,,0.00,0.0,meteohub,2013-06-24 06:07:00,
2013-06-24 02:14:00,68.7,67.3,30.12,ESE,105,0.0,0.0,92,0.00,,,0.00,0.0,meteohub,2013-06-24 06:14:00,
2013-06-24 02:20:00,68.7,67.3,30.12,ESE,105,0.0,0.0,92,0.00,,,0.00,0.0,meteohub,2013-06-24 06:20:00,
2013-06-24 02:26:00,68.5,67.1,30.12,ESE,105,0.0,0.0,92,0.00,,,0.00,0.0,meteohub,2013-06-24 06:26:00,
2013-06-24 02:32:00,68.4,66.9,30.12,ESE,105,0.0,0.0,92,0.00,,,0.00,0.0,meteohub,2013-06-24 06:32:00,
2013-06-24 02:37:00,68.4,66.9,30.12,ESE,105,0.0,0.0,92,0.00,,,0.00,0.0,meteohub,2013-06-24 06:37:00,
2013-06-24 02:45:00,68.4,66.9,30.12,ESE,105,0.0,0.0,92,0.00,,,0.00,0.0,meteohub,2013-06-24 06:45:00,
2013-06-24 02:51:00,68.2,66.7,30.12,ESE,105,0.0,1.0,92,0.00,,,0.00,0.0,meteohub,2013-06-24 06:51:00,
2013-06-24 02:57:00,68.2,66.7,30.12,ESE,105,0.0,2.0,92,0.00,,,0.00,0.0,meteohub,2013-06-24 06:57:00,
2013-06-24 03:02:00,68.0,66.6,30.12,ESE,105,0.0,2.0,92,0.00,,,0.00,0.0,meteohub,2013-06-24 07:02:00,
2013-06-24 03:07:00,68.0,66.6,30.12,ESE,105,0.0,1.0,92,0.00,,,0.00,0.0,meteohub,2013-06-24 07:07:00,
2013-06-24 03:12:00,67.8,66.4,30.12,ESE,105,0.0,0.0,92,0.00,,,0.00,0.0,meteohub,2013-06-24 07:12:00,
2013-06-24 03:19:00,67.8,66.4,30.12,ESE,105,0.0,1.0,92,0.00,,,0.00,0.0,meteohub,2013-06-24 07:19:00,
2013-06-24 03:25:00,67.6,66.2,30.12,ESE,105,0.0,1.0,92,0.00,,,0.00,0.0,meteohub,2013-06-24 07:25:00,
2013-06-24 03:31:00,67.5,66.0,30.13,ESE,105,0.0,1.0,92,0.00,,,0.00,0.0,meteohub,2013-06-24 07:31:00,
2013-06-24 03:37:00,67.5,66.0,30.13,ESE,105,0.0,1.0,92,0.00,,,0.00,0.0,meteohub,2013-06-24 07:37:00,
2013-06-24 03:43:00,67.5,66.0,30.12,ESE,105,0.0,1.0,92,0.00,,,0.00,0.0,meteohub,2013-06-24 07:43:00,
2013-06-24 03:49:00,67.5,66.0,30.13,ESE,105,0.0,0.0,92,0.00,,,0.00,0.0,meteohub,2013-06-24 07:49:00,
2013-06-24 03:55:00,67.5,66.0,30.13,ESE,105,0.0,0.0,92,0.00,,,0.00,0.0,meteohub,2013-06-24 07:55:00,
2013-06-24 04:01:00,67.5,66.0,30.13,ESE,105,0.0,0.0,92,0.00,,,0.00,0.0,meteohub,2013-06-24 08:01:00,
2013-06-24 04:07:00,67.3,65.8,30.13,ESE,105,0.0,0.0,92,0.00,,,0.00,0.0,meteohub,2013-06-24 08:07:00,
2013-06-24 04:12:00,67.1,65.7,30.13,ESE,105,0.0,0.0,92,0.00,,,0.00,0.0,meteohub,2013-06-24 08:12:00,
2013-06-24 04:17:00,67.3,65.8,30.13,ESE,105,0.0,1.0,92,0.00,,,0.00,0.0,meteohub,2013-06-24 08:17:00,
2013-06-24 04:22:00,67.3,65.8,30.13,ESE,105,1.0,1.0,92,0.00,,,0.00,0.0,meteohub,2013-06-24 08:22:00,
2013-06-24 04:27:00,67.3,65.8,30.12,ESE,105,0.0,2.0,92,0.00,,,0.00,0.0,meteohub,2013-06-24 08:27:00,
2013-06-24 04:32:00,67.1,65.7,30.12,ESE,105,0.0,2.0,92,0.00,,,0.00,0.0,meteohub,2013-06-24 08:32:00,
2013-06-24 04:37:00,67.1,65.7,30.12,ESE,105,0.0,2.0,92,0.00,,,0.00,0.0,meteohub,2013-06-24 08:37:00,
2013-06-24 04:44:00,67.1,65.7,30.12,ESE,105,0.0,0.0,92,0.00,,,0.00,0.0,meteohub,2013-06-24 08:44:00,
2013-06-24 04:50:00,66.9,65.5,30.13,ESE,105,1.0,2.0,92,0.00,,,0.00,0.0,meteohub,2013-06-24 08:50:00,
2013-06-24 04:56:00,67.1,65.7,30.13,ESE,105,1.0,2.0,92,0.00,,,0.00,0.0,meteohub,2013-06-24 08:56:00,
2013-06-24 05:02:00,67.1,65.7,30.13,ESE,106,0.0,3.0,92,0.00,,,0.00,0.0,meteohub,2013-06-24 09:02:00,
2013-06-24 05:07:00,66.9,65.5,30.13,ESE,106,0.0,3.0,92,0.00,,,0.00,0.0,meteohub,2013-06-24 09:07:00,
2013-06-24 05:12:00,66.9,65.5,30.13,ESE,106,0.0,3.0,92,0.00,,,0.00,0.0,meteohub,2013-06-24 09:12:00,
2013-06-24 05:17:00,66.7,65.3,30.13,ESE,106,0.0,0.0,92,0.00,,,0.00,0.0,meteohub,2013-06-24 09:17:00,
2013-06-24 05:22:00,66.6,65.1,30.13,ESE,106,0.0,0.0,92,0.00,,,0.00,0.0,meteohub,2013-06-24 09:22:00,
2013-06-24 05:27:00,66.6,65.1,30.14,ESE,106,0.0,1.0,92,0.00,,,0.00,0.0,meteohub,2013-06-24 09:27:00,
2013-06-24 05:33:00,66.6,65.1,30.13,ESE,106,0.0,1.0,92,0.00,,,0.00,0.0,meteohub,2013-06-24 09:33:00,
2013-06-24 05:39:00,66.4,64.9,30.13,ESE,106,0.0,1.0,92,0.00,,,0.00,0.0,meteohub,2013-06-24 09:39:00,
2013-06-24 05:45:00,66.4,64.9,30.13,ESE,106,0.0,0.0,92,0.00,,,0.00,0.0,meteohub,2013-06-24 09:45:00,
2013-06-24 05:51:00,66.2,64.8,30.14,ESE,106,0.0,0.0,92,0.00,,,0.00,0.0,meteohub,2013-06-24 09:51:00,
2013-06-24 05:57:00,66.2,64.8,30.13,ESE,106,0.0,0.0,92,0.00,,,0.00,0.0,meteohub,2013-06-24 09:57:00,
2013-06-24 06:02:00,66.2,64.8,30.14,ESE,106,0.0,0.0,92,0.00,,,0.00,7.0,meteohub,2013-06-24 10:02:00,
2013-06-24 06:07:00,66.2,64.8,30.14,ESE,106,1.0,0.0,92,0.00,,,0.00,11.0,meteohub,2013-06-24 10:07:00,
2013-06-24 06:12:00,66.2,64.8,30.14,ESE,106,0.0,0.0,92,0.00,,,0.00,16.0,meteohub,2013-06-24 10:12:00,
2013-06-24 06:17:00,66.0,64.6,30.14,ESE,106,0.0,2.0,92,0.00,,,0.00,21.0,meteohub,2013-06-24 10:17:00,
2013-06-24 06:22:00,66.0,64.6,30.14,ESE,106,0.0,2.0,92,0.00,,,0.00,28.0,meteohub,2013-06-24 10:22:00,
2013-06-24 06:27:00,66.0,64.6,30.14,ESE,106,0.0,0.0,92,0.00,,,0.00,40.0,meteohub,2013-06-24 10:27:00,
2013-06-24 06:32:00,66.2,64.9,30.14,ESE,106,0.0,0.0,93,0.00,,,0.00,63.0,meteohub,2013-06-24 10:32:00,
2013-06-24 06:37:00,66.2,64.9,30.14,ESE,121,0.0,0.0,93,0.00,,,0.00,84.0,meteohub,2013-06-24 10:37:00,
2013-06-24 06:43:00,66.4,65.1,30.14,ESE,121,0.0,1.0,93,0.00,,,0.00,104.0,meteohub,2013-06-24 10:43:00,
2013-06-24 06:49:00,66.6,65.3,30.14,ESE,121,0.0,1.0,93,0.00,,,0.00,105.0,meteohub,2013-06-24 10:49:00,
2013-06-24 06:56:00,66.9,65.7,30.14,SE,145,0.0,0.0,93,0.00,,,0.00,111.0,meteohub,2013-06-24 10:56:00,
2013-06-24 07:02:00,67.1,65.8,30.14,SE,145,0.0,0.0,93,0.00,,,0.00,132.0,meteohub,2013-06-24 11:02:00,
2013-06-24 07:07:00,67.6,66.4,30.14,WNW,299,0.0,2.0,93,0.00,,,0.00,79.0,meteohub,2013-06-24 11:07:00,
2013-06-24 07:12:00,68.0,66.7,30.14,NE,41,0.0,2.0,93,0.00,,,0.00,74.0,meteohub,2013-06-24 11:12:00,
2013-06-24 07:17:00,68.2,66.9,30.14,NE,36,0.0,3.0,93,0.00,,,0.00,79.0,meteohub,2013-06-24 11:17:00,
2013-06-24 07:22:00,68.2,66.9,30.14,NE,36,0.0,2.0,93,0.00,,,0.00,86.0,meteohub,2013-06-24 11:22:00,
2013-06-24 07:29:00,68.2,66.9,30.15,NE,36,1.0,2.0,93,0.00,,,0.00,69.0,meteohub,2013-06-24 11:29:00,
2013-06-24 07:35:00,68.2,66.9,30.15,NE,36,0.0,0.0,93,0.00,,,0.00,77.0,meteohub,2013-06-24 11:35:00,
2013-06-24 07:41:00,68.4,67.1,30.15,NE,36,0.0,2.0,93,0.00,,,0.00,258.0,meteohub,2013-06-24 11:41:00,
2013-06-24 07:47:00,68.5,67.3,30.14,NE,36,0.0,2.0,93,0.00,,,0.00,271.0,meteohub,2013-06-24 11:47:00,
2013-06-24 07:52:00,68.9,67.6,30.15,NE,36,0.0,2.0,93,0.00,,,0.00,283.0,meteohub,2013-06-24 11:52:00,
2013-06-24 07:57:00,69.3,68.0,30.14,NE,36,0.0,2.0,93,0.00,,,0.00,304.0,meteohub,2013-06-24 11:57:00,
2013-06-24 08:02:00,69.6,68.4,30.14,NE,36,0.0,1.0,93,0.00,,,0.00,334.0,meteohub,2013-06-24 12:02:00,
2013-06-24 08:07:00,70.0,68.7,30.14,North,355,2.0,2.0,93,0.00,,,0.00,362.0,meteohub,2013-06-24 12:07:00,
2013-06-24 08:12:00,70.3,69.1,30.14,North,355,0.0,3.0,93,0.00,,,0.00,388.0,meteohub,2013-06-24 12:12:00,
2013-06-24 08:17:00,70.9,69.6,30.14,North,355,0.0,3.0,93,0.00,,,0.00,438.0,meteohub,2013-06-24 12:17:00,
2013-06-24 08:22:00,71.4,70.0,30.14,North,355,0.0,3.0,92,0.00,,,0.00,510.0,meteohub,2013-06-24 12:22:00,
2013-06-24 08:27:00,72.0,70.2,30.14,North,355,0.0,2.0,91,0.00,,,0.00,591.0,meteohub,2013-06-24 12:27:00,
2013-06-24 08:33:00,72.7,70.2,30.14,North,355,0.0,2.0,89,0.00,,,0.00,301.0,meteohub,2013-06-24 12:33:00,
2013-06-24 08:39:00,73.2,70.2,30.14,North,355,0.0,2.0,87,0.00,,,0.00,246.0,meteohub,2013-06-24 12:39:00,
2013-06-24 08:45:00,73.6,70.5,30.14,North,355,0.0,0.0,87,0.00,,,0.00,223.0,meteohub,2013-06-24 12:45:00,
2013-06-24 08:52:00,74.1,71.1,30.14,North,355,0.0,0.0,87,0.00,,,0.00,220.0,meteohub,2013-06-24 12:52:00,
2013-06-24 08:57:00,74.3,70.5,30.15,North,355,0.0,0.0,85,0.00,,,0.00,214.0,meteohub,2013-06-24 12:57:00,
2013-06-24 09:02:00,74.7,70.9,30.15,North,355,0.0,0.0,85,0.00,,,0.00,225.0,meteohub,2013-06-24 13:02:00,
2013-06-24 09:07:00,75.0,71.2,30.14,North,355,0.0,0.0,85,0.00,,,0.00,265.0,meteohub,2013-06-24 13:07:00,
2013-06-24 09:12:00,75.2,71.8,30.15,North,355,0.0,0.0,86,0.00,,,0.00,243.0,meteohub,2013-06-24 13:12:00,
2013-06-24 09:17:00,75.4,72.0,30.15,North,355,0.0,0.0,86,0.00,,,0.00,313.0,meteohub,2013-06-24 13:17:00,
2013-06-24 09:22:00,75.7,72.0,30.14,North,355,0.0,0.0,85,0.00,,,0.00,253.0,meteohub,2013-06-24 13:22:00,
2013-06-24 09:28:00,76.1,72.0,30.14,North,355,0.0,1.0,84,0.00,,,0.00,330.0,meteohub,2013-06-24 13:28:00,
2013-06-24 09:34:00,76.5,72.3,30.14,North,355,0.0,1.0,84,0.00,,,0.00,311.0,meteohub,2013-06-24 13:34:00,
2013-06-24 09:40:00,76.8,72.0,30.14,North,355,0.0,1.0,82,0.00,,,0.00,489.0,meteohub,2013-06-24 13:40:00,
2013-06-24 09:46:00,77.4,72.9,30.14,North,351,0.0,1.0,83,0.00,,,0.00,482.0,meteohub,2013-06-24 13:46:00,
2013-06-24 09:52:00,77.9,72.0,30.14,South,186,1.0,1.0,79,0.00,,,0.00,434.0,meteohub,2013-06-24 13:52:00,
2013-06-24 09:57:00,77.9,72.0,30.14,South,189,1.0,4.0,79,0.00,,,0.00,668.0,meteohub,2013-06-24 13:57:00,
2013-06-24 10:02:00,78.4,72.5,30.14,East,80,0.0,4.0,79,0.00,,,0.00,768.0,meteohub,2013-06-24 14:02:00,
2013-06-24 10:07:00,78.8,72.5,30.14,East,86,0.0,3.0,78,0.00,,,0.00,689.0,meteohub,2013-06-24 14:07:00,
2013-06-24 10:14:00,79.7,73.4,30.14,East,86,0.0,3.0,78,0.00,,,0.00,443.0,meteohub,2013-06-24 14:14:00,
2013-06-24 10:20:00,80.1,72.9,30.14,East,86,0.0,3.0,76,0.00,,,0.00,436.0,meteohub,2013-06-24 14:20:00,
2013-06-24 10:27:00,80.6,73.4,30.14,East,86,0.0,3.0,76,0.00,,,0.00,527.0,meteohub,2013-06-24 14:27:00,
2013-06-24 10:32:00,81.3,73.4,30.14,East,88,0.0,3.0,74,0.00,,,0.00,504.0,meteohub,2013-06-24 14:32:00,
2013-06-24 10:37:00,81.5,73.9,30.14,WNW,294,3.0,3.0,75,0.00,,,0.00,533.0,meteohub,2013-06-24 14:37:00,
2013-06-24 10:42:00,81.9,73.9,30.14,North,5,1.0,3.0,74,0.00,,,0.00,846.0,meteohub,2013-06-24 14:42:00,
2013-06-24 10:47:00,82.6,75.4,30.14,North,5,0.0,3.0,76,0.00,,,0.00,954.0,meteohub,2013-06-24 14:47:00,
2013-06-24 10:52:00,83.1,74.7,30.14,North,5,0.0,3.0,73,0.00,,,0.00,803.0,meteohub,2013-06-24 14:52:00,
2013-06-24 10:57:00,83.1,74.3,30.14,South,176,0.0,4.0,72,0.00,,,0.00,492.0,meteohub,2013-06-24 14:57:00,
2013-06-24 11:03:00,83.1,74.3,30.14,South,176,0.0,4.0,72,0.00,,,0.00,415.0,meteohub,2013-06-24 15:03:00,
2013-06-24 11:09:00,83.3,75.7,30.14,South,176,0.0,4.0,75,0.00,,,0.00,345.0,meteohub,2013-06-24 15:09:00,
2013-06-24 11:15:00,83.5,75.0,30.14,ESE,121,1.0,3.0,73,0.00,,,0.00,334.0,meteohub,2013-06-24 15:15:00,
2013-06-24 11:21:00,83.1,75.2,30.14,WNW,282,1.0,3.0,74,0.00,,,0.00,350.0,meteohub,2013-06-24 15:21:00,
2013-06-24 11:27:00,83.1,74.3,30.14,SSW,205,2.0,4.0,72,0.00,,,0.00,383.0,meteohub,2013-06-24 15:27:00,
2013-06-24 11:34:00,82.6,74.3,30.14,SSE,157,4.0,4.0,73,0.00,,,0.00,439.0,meteohub,2013-06-24 15:34:00,
2013-06-24 11:40:00,82.2,75.0,30.14,SSE,154,1.0,6.0,76,0.00,,,0.00,424.0,meteohub,2013-06-24 15:40:00,
2013-06-24 11:46:00,82.2,74.7,30.14,SSE,154,0.0,6.0,75,0.00,,,0.00,452.0,meteohub,2013-06-24 15:46:00,
2013-06-24 11:52:00,82.2,74.3,30.14,SSE,165,3.0,7.0,74,0.00,,,0.00,339.0,meteohub,2013-06-24 15:52:00,
2013-06-24 11:57:00,81.9,73.9,30.14,SSE,157,1.0,7.0,74,0.00,,,0.00,288.0,meteohub,2013-06-24 15:57:00,
2013-06-24 12:02:00,81.9,73.9,30.14,SW,230,5.0,7.0,74,0.00,,,0.00,292.0,meteohub,2013-06-24 16:02:00,
2013-06-24 12:07:00,81.7,74.1,30.14,South,169,0.0,6.0,75,0.00,,,0.00,371.0,meteohub,2013-06-24 16:07:00,
2013-06-24 12:12:00,81.7,74.1,30.14,SSE,168,2.0,6.0,75,0.00,,,0.00,432.0,meteohub,2013-06-24 16:12:00,
2013-06-24 12:20:00,81.9,74.7,30.14,West,261,3.0,6.0,76,0.00,,,0.00,568.0,meteohub,2013-06-24 16:20:00,
2013-06-24 12:26:00,82.2,74.3,30.14,South,175,6.0,10.0,74,0.00,,,0.00,478.0,meteohub,2013-06-24 16:26:00,
2013-06-24 12:32:00,82.4,74.5,30.14,South,188,2.0,11.0,74,0.00,,,0.00,547.0,meteohub,2013-06-24 16:32:00,
2013-06-24 12:37:00,82.4,74.8,30.13,SSE,157,2.0,11.0,75,0.00,,,0.00,601.0,meteohub,2013-06-24 16:37:00,
2013-06-24 12:42:00,82.6,74.7,30.13,SSE,159,3.0,11.0,74,0.00,,,0.00,496.0,meteohub,2013-06-24 16:42:00,
2013-06-24 12:47:00,82.6,74.7,30.12,SSW,198,3.0,9.0,74,0.00,,,0.00,496.0,meteohub,2013-06-24 16:47:00,
2013-06-24 12:52:00,82.8,74.5,30.12,South,182,3.0,9.0,73,0.00,,,0.00,596.0,meteohub,2013-06-24 16:52:00,
2013-06-24 12:57:00,82.9,75.0,30.13,SSE,165,0.0,10.0,74,0.00,,,0.00,534.0,meteohub,2013-06-24 16:57:00,
2013-06-24 13:03:00,83.5,74.7,30.12,ESE,115,3.0,10.0,72,0.00,,,0.00,814.0,meteohub,2013-06-24 17:03:00,
2013-06-24 13:09:00,83.5,74.7,30.12,SSW,205,0.0,10.0,72,0.00,,,0.00,1317.0,meteohub,2013-06-24 17:09:00,
2013-06-24 13:15:00,84.2,75.0,30.12,NE,38,3.0,11.0,71,0.00,,,0.00,728.0,meteohub,2013-06-24 17:15:00,
2013-06-24 13:21:00,84.2,75.4,30.12,SSE,150,2.0,10.0,72,0.00,,,0.00,420.0,meteohub,2013-06-24 17:21:00,
2013-06-24 13:27:00,84.0,74.8,30.12,SSW,196,5.0,9.0,71,0.00,,,0.00,759.0,meteohub,2013-06-24 17:27:00,
2013-06-24 13:32:00,83.7,74.5,30.11,South,180,6.0,7.0,71,0.00,,,0.00,431.0,meteohub,2013-06-24 17:32:00,
2013-06-24 13:39:00,83.7,74.1,30.10,South,190,2.0,7.0,70,0.00,,,0.00,1053.0,meteohub,2013-06-24 17:39:00,
2013-06-24 13:46:00,84.2,74.1,30.10,South,190,0.0,7.0,69,0.00,,,0.00,1114.0,meteohub,2013-06-24 17:46:00,
2013-06-24 13:52:00,84.6,73.2,30.10,NNW,329,4.0,7.0,66,0.00,,,0.00,404.0,meteohub,2013-06-24 17:52:00,
2013-06-24 13:57:00,84.6,73.8,30.10,SSE,157,0.0,7.0,67,0.00,,,0.00,462.0,meteohub,2013-06-24 17:57:00,
2013-06-24 14:04:00,85.1,74.1,30.09,SSE,157,0.0,6.0,67,0.00,,,0.00,619.0,meteohub,2013-06-24 18:04:00,
2013-06-24 14:10:00,85.8,75.4,30.09,SSE,157,0.0,6.0,68,0.00,,,0.00,1065.0,meteohub,2013-06-24 18:10:00,
2013-06-24 14:16:00,86.4,75.4,30.09,NNW,328,0.0,9.0,67,0.00,,,0.00,824.0,meteohub,2013-06-24 18:16:00,
2013-06-24 14:22:00,86.5,75.2,30.09,South,185,3.0,9.0,66,0.00,,,0.00,455.0,meteohub,2013-06-24 18:22:00,
2013-06-24 14:27:00,86.5,75.6,30.09,NNE,27,2.0,9.0,67,0.00,,,0.00,380.0,meteohub,2013-06-24 18:27:00,
2013-06-24 14:32:00,86.2,74.3,30.08,NW,313,0.0,6.0,65,0.00,,,0.00,404.0,meteohub,2013-06-24 18:32:00,
2013-06-24 14:37:00,86.2,76.5,30.08,WNW,284,0.0,6.0,70,0.00,,,0.00,508.0,meteohub,2013-06-24 18:37:00,
2013-06-24 14:42:00,86.4,75.0,30.08,SSE,155,6.0,6.0,66,0.00,,,0.00,1065.0,meteohub,2013-06-24 18:42:00,
2013-06-24 14:47:00,86.7,74.5,30.08,North,355,4.0,10.0,64,0.00,,,0.00,963.0,meteohub,2013-06-24 18:47:00,
2013-06-24 14:52:00,86.9,73.2,30.08,NW,322,3.0,10.0,61,0.00,,,0.00,939.0,meteohub,2013-06-24 18:52:00,
2013-06-24 14:57:00,87.4,73.8,30.07,SSW,213,1.0,10.0,61,0.00,,,0.00,912.0,meteohub,2013-06-24 18:57:00,
2013-06-24 15:03:00,87.6,73.9,30.07,SE,142,2.0,6.0,61,0.00,,,0.00,904.0,meteohub,2013-06-24 19:03:00,
2013-06-24 15:09:00,87.6,73.4,30.07,WSW,248,1.0,7.0,60,0.00,,,0.00,888.0,meteohub,2013-06-24 19:09:00,
2013-06-24 15:15:00,87.6,73.9,30.06,WNW,302,0.0,10.0,61,0.00,,,0.00,868.0,meteohub,2013-06-24 19:15:00,
2013-06-24 15:21:00,88.0,74.7,30.06,SW,225,2.0,10.0,62,0.00,,,0.00,844.0,meteohub,2013-06-24 19:21:00,
2013-06-24 15:27:00,87.8,74.1,30.06,SSW,196,1.0,7.0,61,0.00,,,0.00,846.0,meteohub,2013-06-24 19:27:00,
2013-06-24 15:32:00,87.8,72.7,30.06,SSW,196,1.0,9.0,58,0.00,,,0.00,842.0,meteohub,2013-06-24 19:32:00,
2013-06-24 15:37:00,88.0,73.2,30.06,WNW,292,1.0,9.0,59,0.00,,,0.00,844.0,meteohub,2013-06-24 19:37:00,
2013-06-24 15:42:00,88.2,73.4,30.06,West,259,1.0,9.0,59,0.00,,,0.00,860.0,meteohub,2013-06-24 19:42:00,
2013-06-24 15:47:00,88.7,75.4,30.06,NW,312,1.0,7.0,62,0.00,,,0.00,891.0,meteohub,2013-06-24 19:47:00,
2013-06-24 15:52:00,88.7,74.5,30.05,West,275,5.0,5.0,60,0.00,,,0.00,322.0,meteohub,2013-06-24 19:52:00,
2013-06-24 15:58:00,88.3,74.1,30.05,WNW,282,1.0,5.0,60,0.00,,,0.00,452.0,meteohub,2013-06-24 19:58:00,
2013-06-24 16:04:00,88.2,73.9,30.05,South,188,5.0,5.0,60,0.00,,,0.00,870.0,meteohub,2013-06-24 20:04:00,
2013-06-24 16:10:00,88.2,73.9,30.04,South,180,0.0,9.0,60,0.00,,,0.00,900.0,meteohub,2013-06-24 20:10:00,
2013-06-24 16:16:00,88.2,73.4,30.04,South,186,2.0,9.0,59,0.00,,,0.00,865.0,meteohub,2013-06-24 20:16:00,
2013-06-24 16:22:00,88.3,76.5,30.04,SSW,194,3.0,7.0,65,0.00,,,0.00,230.0,meteohub,2013-06-24 20:22:00,
2013-06-24 16:27:00,87.8,75.9,30.04,WNW,284,2.0,7.0,65,0.00,,,0.00,200.0,meteohub,2013-06-24 20:27:00,
2013-06-24 16:32:00,86.7,75.4,30.04,NW,323,0.0,6.0,66,0.00,,,0.00,243.0,meteohub,2013-06-24 20:32:00,
2013-06-24 16:38:00,85.8,75.4,30.04,NNW,332,2.0,6.0,68,0.00,,,0.00,239.0,meteohub,2013-06-24 20:38:00,
2013-06-24 16:44:00,85.6,75.9,30.04,ENE,78,0.0,4.0,70,0.00,,,0.00,241.0,meteohub,2013-06-24 20:44:00,
2013-06-24 16:50:00,86.0,75.6,30.04,ENE,77,2.0,4.0,68,0.00,,,0.00,731.0,meteohub,2013-06-24 20:50:00,
2013-06-24 16:56:00,85.8,75.4,30.03,East,79,0.0,4.0,68,0.00,,,0.00,171.0,meteohub,2013-06-24 20:56:00,
2013-06-24 17:02:00,85.6,75.9,30.04,East,83,0.0,4.0,70,0.00,,,0.00,172.0,meteohub,2013-06-24 21:02:00,
2013-06-24 17:07:00,85.5,75.7,30.04,East,84,0.0,4.0,70,0.00,,,0.00,176.0,meteohub,2013-06-24 21:07:00,
2013-06-24 17:14:00,85.1,75.9,30.04,East,83,0.0,2.0,71,0.00,,,0.00,587.0,meteohub,2013-06-24 21:14:00,
2013-06-24 17:20:00,84.9,76.1,30.04,West,273,0.0,1.0,72,0.00,,,0.00,148.0,meteohub,2013-06-24 21:20:00,
2013-06-24 17:26:00,84.6,75.7,30.04,West,273,0.0,3.0,72,0.00,,,0.00,552.0,meteohub,2013-06-24 21:26:00,
2013-06-24 17:32:00,84.6,75.7,30.04,West,273,0.0,3.0,72,0.00,,,0.00,132.0,meteohub,2013-06-24 21:32:00,
2013-06-24 17:37:00,84.6,75.7,30.05,West,273,0.0,2.0,72,0.00,,,0.00,107.0,meteohub,2013-06-24 21:37:00,
2013-06-24 17:42:00,84.0,74.8,30.05,West,273,0.0,2.0,71,0.00,,,0.00,97.0,meteohub,2013-06-24 21:42:00,
2013-06-24 17:48:00,83.1,74.3,30.05,West,273,0.0,2.0,72,0.00,,,0.00,104.0,meteohub,2013-06-24 21:48:00,
2013-06-24 17:54:00,82.6,75.0,30.05,SE,145,0.0,1.0,75,0.00,,,0.00,77.0,meteohub,2013-06-24 21:54:00,
2013-06-24 18:00:00,82.0,74.8,30.05,SE,145,0.0,3.0,76,0.00,,,0.00,69.0,meteohub,2013-06-24 22:00:00,
2013-06-24 18:06:00,81.3,75.2,30.04,SE,145,0.0,3.0,79,0.00,,,0.00,88.0,meteohub,2013-06-24 22:06:00,
2013-06-24 18:12:00,80.4,75.2,30.04,SSE,150,0.0,1.0,81,0.00,,,0.00,98.0,meteohub,2013-06-24 22:12:00,
2013-06-24 18:17:00,79.9,75.0,30.04,SSE,150,0.0,2.0,82,0.00,,,0.00,97.0,meteohub,2013-06-24 22:17:00,
2013-06-24 18:24:00,79.2,75.0,30.04,SSE,150,0.0,2.0,84,0.00,,,0.00,81.0,meteohub,2013-06-24 22:24:00,
2013-06-24 18:30:00,79.0,75.4,30.04,SSE,150,0.0,1.0,86,0.00,,,0.00,56.0,meteohub,2013-06-24 22:30:00,
2013-06-24 18:37:00,78.6,75.0,30.04,SSE,153,2.0,2.0,86,0.00,,,0.00,47.0,meteohub,2013-06-24 22:37:00,
2013-06-24 18:42:00,78.3,75.0,30.04,SSE,153,0.0,3.0,87,0.00,,,0.00,44.0,meteohub,2013-06-24 22:42:00,
2013-06-24 18:47:00,78.1,75.2,30.04,SSE,154,0.0,3.0,88,0.00,,,0.00,39.0,meteohub,2013-06-24 22:47:00,
2013-06-24 18:52:00,77.9,75.0,30.04,SSE,154,0.0,3.0,88,0.00,,,0.00,23.0,meteohub,2013-06-24 22:52:00,
2013-06-24 18:57:00,77.2,73.9,30.05,WNW,293,0.0,3.0,87,0.00,,,0.00,14.0,meteohub,2013-06-24 22:57:00,
2013-06-24 19:02:00,76.8,73.9,30.05,WNW,293,0.0,4.0,88,0.00,,,0.00,18.0,meteohub,2013-06-24 23:02:00,
2013-06-24 19:07:00,76.5,73.9,30.05,WNW,293,0.0,4.0,89,0.00,,,0.00,21.0,meteohub,2013-06-24 23:07:00,
2013-06-24 19:12:00,76.3,73.8,30.04,WNW,293,0.0,3.0,89,0.00,,,0.00,21.0,meteohub,2013-06-24 23:12:00,
2013-06-24 19:17:00,76.3,74.1,30.05,WNW,293,0.0,2.0,90,0.00,,,0.00,16.0,meteohub,2013-06-24 23:17:00,
2013-06-24 19:22:00,76.1,73.9,30.05,WNW,293,0.0,3.0,90,0.00,,,0.00,35.0,meteohub,2013-06-24 23:22:00,
2013-06-24 19:27:00,75.9,73.8,30.05,WNW,293,0.0,3.0,90,0.00,,,0.00,84.0,meteohub,2013-06-24 23:27:00,
2013-06-24 19:32:00,75.6,73.0,30.05,WNW,293,0.0,3.0,89,0.00,,,0.00,70.0,meteohub,2013-06-24 23:32:00,
2013-06-24 19:37:00,75.4,72.9,30.05,WNW,287,0.0,2.0,89,0.00,,,0.00,37.0,meteohub,2013-06-24 23:37:00,
2013-06-24 19:42:00,74.7,71.6,30.05,WNW,287,0.0,3.0,87,0.00,,,0.00,25.0,meteohub,2013-06-24 23:42:00,
2013-06-24 19:47:00,73.8,70.7,30.05,WNW,287,0.0,3.0,87,0.00,,,0.00,18.0,meteohub,2013-06-24 23:47:00,
2013-06-24 19:53:00,73.4,70.5,30.04,WNW,287,0.0,2.0,88,0.00,,,0.00,14.0,meteohub,2013-06-24 23:53:00,
2013-06-24 20:00:00,72.9,70.3,30.06,WNW,287,1.0,1.0,89,0.00,,,0.00,7.0,meteohub,2013-06-25 00:00:00,
2013-06-24 20:06:00,72.7,70.2,30.06,WNW,287,0.0,2.0,89,0.00,,,0.00,0.0,meteohub,2013-06-25 00:06:00,
2013-06-24 20:12:00,72.1,69.6,30.06,WNW,288,0.0,2.0,89,0.00,,,0.00,0.0,meteohub,2013-06-25 00:12:00,
2013-06-24 20:17:00,72.0,69.4,30.07,WNW,288,0.0,2.0,89,0.00,,,0.00,0.0,meteohub,2013-06-25 00:17:00,
2013-06-24 20:22:00,71.8,69.3,30.06,WNW,288,0.0,2.0,89,0.00,,,0.00,0.0,meteohub,2013-06-25 00:22:00,
2013-06-24 20:27:00,71.6,69.1,30.06,WNW,288,0.0,2.0,89,0.00,,,0.00,0.0,meteohub,2013-06-25 00:27:00,
2013-06-24 20:32:00,71.4,68.9,30.06,WNW,288,0.0,2.0,89,0.00,,,0.00,0.0,meteohub,2013-06-25 00:32:00,
2013-06-24 20:37:00,71.4,69.3,30.06,WNW,288,0.0,2.0,90,0.00,,,0.00,0.0,meteohub,2013-06-25 00:37:00,
2013-06-24 20:42:00,71.4,69.3,30.06,WNW,288,0.0,2.0,90,0.00,,,0.00,0.0,meteohub,2013-06-25 00:42:00,
2013-06-24 20:47:00,71.4,69.6,30.06,WNW,288,0.0,2.0,91,0.00,,,0.00,0.0,meteohub,2013-06-25 00:47:00,
2013-06-24 20:52:00,71.4,69.6,30.07,WNW,288,0.0,2.0,91,0.00,,,0.00,0.0,meteohub,2013-06-25 00:52:00,
2013-06-24 20:57:00,71.2,69.4,30.08,WNW,288,0.0,2.0,91,0.00,,,0.00,0.0,meteohub,2013-06-25 00:57:00,
2013-06-24 21:02:00,71.1,69.3,30.09,SSW,209,3.0,7.0,91,0.00,,,0.00,0.0,meteohub,2013-06-25 01:02:00,
2013-06-24 21:10:00,71.4,69.6,30.09,ESE,112,0.0,7.0,91,0.00,,,0.00,0.0,meteohub,2013-06-25 01:10:00,
2013-06-24 21:16:00,71.6,69.8,30.08,ENE,59,0.0,5.0,91,0.00,,,0.00,0.0,meteohub,2013-06-25 01:16:00,
2013-06-24 21:22:00,71.4,69.6,30.07,SE,133,1.0,5.0,91,0.00,,,0.00,0.0,meteohub,2013-06-25 01:22:00,
2013-06-24 21:29:00,71.4,69.6,30.08,SE,133,2.0,5.0,91,0.00,,,0.00,0.0,meteohub,2013-06-25 01:29:00,
2013-06-24 21:35:00,71.4,69.6,30.08,SE,133,0.0,5.0,91,0.00,,,0.00,0.0,meteohub,2013-06-25 01:35:00,
2013-06-24 21:41:00,71.2,69.4,30.08,SE,133,0.0,2.0,91,0.00,,,0.00,0.0,meteohub,2013-06-25 01:41:00,
2013-06-24 21:47:00,71.1,69.3,30.08,SE,134,0.0,0.0,91,0.00,,,0.00,0.0,meteohub,2013-06-25 01:47:00,
2013-06-24 21:52:00,70.9,69.1,30.08,SE,134,0.0,0.0,91,0.00,,,0.00,0.0,meteohub,2013-06-25 01:52:00,
2013-06-24 21:57:00,70.9,69.1,30.08,SE,134,0.0,1.0,91,0.00,,,0.00,0.0,meteohub,2013-06-25 01:57:00,
2013-06-24 22:02:00,70.9,69.1,30.08,SE,134,0.0,1.0,91,0.00,,,0.00,0.0,meteohub,2013-06-25 02:02:00,
2013-06-24 22:07:00,70.9,69.1,30.08,SE,134,0.0,1.0,91,0.00,,,0.00,0.0,meteohub,2013-06-25 02:07:00,
2013-06-24 22:14:00,70.9,69.1,30.08,SE,134,0.0,0.0,91,0.00,,,0.00,0.0,meteohub,2013-06-25 02:14:00,
2013-06-24 22:20:00,70.9,69.4,30.08,SE,134,0.0,1.0,92,0.00,,,0.00,0.0,meteohub,2013-06-25 02:20:00,
2013-06-24 22:27:00,70.9,69.4,30.07,SE,134,0.0,1.0,92,0.00,,,0.00,0.0,meteohub,2013-06-25 02:27:00,
2013-06-24 22:32:00,70.9,69.4,30.08,SE,134,0.0,1.0,92,0.00,,,0.00,0.0,meteohub,2013-06-25 02:32:00,
2013-06-24 22:37:00,70.9,69.4,30.08,SE,134,0.0,1.0,92,0.00,,,0.00,0.0,meteohub,2013-06-25 02:37:00,
2013-06-24 22:42:00,70.7,69.3,30.08,SE,134,0.0,1.0,92,0.00,,,0.00,0.0,meteohub,2013-06-25 02:42:00,
2013-06-24 22:47:00,70.7,69.3,30.07,SE,134,0.0,1.0,92,0.00,,,0.00,0.0,meteohub,2013-06-25 02:47:00,
2013-06-24 22:54:00,70.7,69.3,30.07,SE,134,0.0,1.0,92,0.00,,,0.00,0.0,meteohub,2013-06-25 02:54:00,
2013-06-24 23:00:00,70.7,69.3,30.07,SE,134,0.0,0.0,92,0.00,,,0.00,0.0,meteohub,2013-06-25 03:00:00,
2013-06-24 23:07:00,70.5,69.1,30.07,SE,134,0.0,0.0,92,0.00,,,0.00,0.0,meteohub,2013-06-25 03:07:00,
2013-06-24 23:12:00,70.7,69.3,30.07,SE,134,0.0,0.0,92,0.00,,,0.00,0.0,meteohub,2013-06-25 03:12:00,
2013-06-24 23:17:00,70.5,69.1,30.07,SE,134,0.0,0.0,92,0.00,,,0.00,0.0,meteohub,2013-06-25 03:17:00,
2013-06-24 23:22:00,70.5,69.1,30.06,SE,134,0.0,0.0,92,0.00,,,0.00,0.0,meteohub,2013-06-25 03:22:00,
2013-06-24 23:27:00,70.5,69.1,30.07,SE,134,0.0,0.0,92,0.00,,,0.00,0.0,meteohub,2013-06-25 03:27:00,
2013-06-24 23:32:00,70.3,68.9,30.06,SE,134,0.0,0.0,92,0.00,,,0.00,0.0,meteohub,2013-06-25 03:32:00,
2013-06-24 23:38:00,70.2,68.7,30.06,SE,134,0.0,0.0,92,0.00,,,0.00,0.0,meteohub,2013-06-25 03:38:00,
2013-06-24 23:45:00,70.2,68.7,30.06,SE,134,0.0,0.0,92,0.00,,,0.00,0.0,meteohub,2013-06-25 03:45:00,
2013-06-24 23:51:00,70.2,68.7,30.06,SE,134,0.0,0.0,92,0.00,,,0.00,0.0,meteohub,2013-06-25 03:51:00,
2013-06-24 23:57:00,70.0,68.5,30.06,SE,134,0.0,0.0,92,0.00,,,0.00,0.0,meteohub,2013-06-25 03:57:00,